Tiempo atmosférico en la estación meteorológica de Jávea/ Xàbia, Alacant/Alicante (15 m.)



Fecha
DESCASC
Temp. máxima en grados centígrados (hora)
DESCASC
Temp. mínima en grados centígrados (hora)
DESCASC
Temp. media en grados centígrados
DESCASC
Racha de viento máxima en m/sg (hora)
DESCASC
Velocidad máxima media en intervalos de 10 minutos(hora)
DESCASC
Precipitaciones diarias en mm
DESCASC
Precipitaciones de 00:00 a 06:00 en mm
DESCASC
Precipitaciones de 06:00 a 12:00 en mm
DESCASC
Precipitaciones de 12:00 a 18:00 en mm
DESCASC
Precipitaciones de 18:00 a 24:00 en mm
DESCASC
22-04-2018 23.2 (15:40) 11.3 (07:40) 17.3 8.89 (11:40) 5.83 (11:40) 0 0 0 0 0
21-04-2018 20.6 (16:40) 12.2 (23:50) 16.4 8.61 (14:30) 5.28 (10:20) 0 0 0 0 0
20-04-2018 20 (16:50) 13.2 (23:59) 16.6 8.89 (12:20) 5.28 (02:20) 0 0 0 0 0
19-04-2018 20.6 (13:50) 11.5 (00:00) 16.1 9.72 (15:10) 6.11 (15:20) 0 0 0 0 0
18-04-2018 24.5 (13:10) 8 (00:00) 16.3 6.39 (15:20) 3.89 (15:10) 0 0 0 0 0
17-04-2018 23.3 (17:40) 8.5 (00:00) 15.9 6.11 (18:10) 3.61 (18:20) 0 0 0 0 0
16-04-2018 22.1 (13:40) 11.9 (00:00) 17 16.39 (06:50) 7.22 (06:50) 4 0 4 0 0
15-04-2018 25.6 (16:40) 11.8 (00:00) 18.7 10.28 (18:00) 5 (19:10) 0 0 0 0 0
14-04-2018 16.7 (12:50) 9.5 (00:00) 13.1 13.33 (11:30) 8.06 (11:30) 0 0 0 0 0
13-04-2018 19.1 (15:10) 11.3 (00:00) 15.2 8.06 (18:40) 4.44 (16:40) 0 0 0 0 0
12-04-2018 22.3 (16:30) 13.7 (00:00) 18 20 (06:50) 10 (07:30) 0 0 0 0 0
11-04-2018 15.8 (11:40) 6.6 (00:00) 11.2 17.5 (00:20) 9.17 (00:10) 17.2 17.2 0 0 0
10-04-2018 18.7 (12:40) 6.8 (00:00) 12.8 17.5 (21:50) 10.28 (21:50) 0 0 0 0 0
09-04-2018 20.3 (16:00) 6.6 (00:00) 13.4 13.89 (15:30) 7.5 (16:20) 0 0 0 0 0
08-04-2018 22.3 (17:10) 8.3 (00:00) 15.3 11.39 (18:00) 5.56 (18:00) 0 0 0 0 0
07-04-2018 20.4 (16:40) 12.5 (00:00) 16.4 13.89 (00:20) 8.06 (00:20) 2 0 0 0 2
06-04-2018 20.3 (13:10) 8.2 (00:00) 14.2 12.22 (23:20) 7.5 (23:59) 0 0 0 0 0
05-04-2018 22.5 (12:20) 10.3 (00:00) 16.4 11.67 (02:30) 6.11 (02:30) 0 0 0 0 0
04-04-2018 24.6 (15:00) 9 (00:00) 16.8 13.33 (12:50) 6.11 (12:50) 0 0 0 0 0
03-04-2018 23.2 (17:20) 7 (00:00) 15.1 9.44 (18:50) 5.28 (13:00) 0 0 0 0 0
02-04-2018 17.7 (16:30) 6.6 (00:00) 12.2 11.11 (17:10) 7.22 (17:10) 0 0 0 0 0
01-04-2018 20.8 (14:50) 5.6 (00:00) 13.2 8.33 (01:40) 4.72 (15:50) 0 0 0 0 0
31-03-2018 21.1 (17:40) 8.2 (00:00) 14.7 18.89 (10:20) 9.72 (12:00) 0 0 0 0 0
30-03-2018 21.8 (14:00) 8.7 (00:00) 15.2 14.72 (16:40) 7.78 (16:40) 0 0 0 0 0
29-03-2018 24.7 (12:30) 11.7 (00:00) 18.2 8.89 (13:40) 5.56 (13:20) 0 0 0 0 0
28-03-2018 26.8 (13:10) 9.8 (00:00) 18.3 11.39 (18:10) 6.11 (18:10) 0 0 0 0 0
27-03-2018 22.3 (13:40) 5.1 (00:00) 13.7 12.22 (19:00) 6.39 (18:50) 0 0 0 0 0
26-03-2018 20.8 (15:00) 6 (00:00) 13.4 10.28 (12:10) 6.11 (12:10) 0 0 0 0 0
25-03-2018 18.1 (13:50) 9 (00:00) 13.6 16.39 (01:10) 8.33 (01:10) 0 0 0 0 0

Gráficas

Temp. máximas Temp. mínimas Temp. medias Precipitaciones Rachas de viento máximas Velocidades máximas media en intervalos de 10 minutos

Datos horarios

Fecha y hora oficial Temperatura (ºC) Velocidad del viento (km/h) Dirección del viento Racha (km/h) Dirección de racha Precipitación (mm) Presión (hPa) Tendencia (hPa) Humedad (%)
2018-04-23 23:00:00 17.9 12 Norte 29 Norte 0 1017.6 1.5 61
2018-04-23 22:00:00 17.6 17 Norte 36 Norte 0 1017.1 0.7 67
2018-04-23 21:00:00 18.4 21 Norte 34 Norte 0 1016.3 -0.1 57
2018-04-23 20:00:00 19.8 20 Norte 32 Norte 0 1016.1 -0.6 49
2018-04-23 19:00:00 21.1 17 Norte 39 Norte 0 1016.4 -0.7 47
2018-04-23 18:00:00 22 21 Norte 38 Norte 0 1016.4 -1.1 44
2018-04-23 17:00:00 22.5 16 Norte 36 Norte 0 1016.7 -1 41
2018-04-23 16:00:00 22.1 19 Norte 36 Norte 0 1017.1 -1 43
2018-04-23 15:00:00 22.9 21 Norte 38 Norte 0 1017.5 -0.7 38
2018-04-23 14:00:00 22.9 18 Norte 36 Norte 0 1017.7 0 39
2018-04-23 13:00:00 22 18 Norte 33 Norte 0 1018.1 0.7 44
2018-04-23 12:00:00 21.4 23 Norte 36 Norte 0 1018.2 1.3 46
2018-04-23 11:00:00 20.9 20 Norte 33 Noroeste 0 1017.7 1.1 50
2018-04-23 10:00:00 19.6 18 Noroeste 33 Norte 0 1017.4 0.9 53
2018-04-23 09:00:00 18 12 Noroeste 28 Noroeste 0 1016.9 0.3 59
2018-04-23 08:00:00 16.1 14 Noroeste 36 Norte 0 1016.6 0.1 67
2018-04-23 07:00:00 15.6 15 Noroeste 44 Noroeste 0 1016.5 0 73
2018-04-23 06:00:00 15.3 10 Noroeste 32 Noroeste 0 1016.6 -0.3 81
2018-04-23 05:00:00 14.8 9 Noroeste 20 Noroeste 0 1016.5 -0.7 85
2018-04-23 04:00:00 13.7 2 Nordeste 9 Sur 0 1016.5 -0.7 83
2018-04-23 03:00:00 14.6 3 Sur 13 Norte 0 1016.9 -0.5 82
2018-04-23 02:00:00 14.2 4 Oeste 10 Oeste 0 1017.2 -0.1 83
2018-04-23 01:00:00 14.2 5 Sur 12 Oeste 0 1017.2 0.4 84
2018-04-23 00:00:00 14.5 3 Sur 10 Sudoeste 0 1017.4 1.4 81
2018-04-22 23:00:00 15.9 5 Sudoeste 20 Noroeste 0 1017.3 1.8 74
2018-04-22 22:00:00 17 4 Sudoeste 14 Nordeste 0 1016.8 1.2 60
2018-04-22 21:00:00 18.5 10 Norte 21 Nordeste 0 1016 0.4 54
2018-04-22 20:00:00 19.6 8 Nordeste 15 Nordeste 0 1015.5 -0.3 51
2018-04-22 19:00:00 21 8 Este 19 Nordeste 0 1015.6 -0.7 44
2018-04-22 18:00:00 21.5 10 Este 20 Este 0 1015.6 -1.2 50
2018-04-22 17:00:00 22.6 9 Nordeste 23 Norte 0 1015.8 -1.2 42
2018-04-22 16:00:00 23 12 Norte 27 Nordeste 0 1016.3 -0.9 43
2018-04-22 15:00:00 22.8 13 Norte 28 Norte 0 1016.8 -0.5 45
2018-04-22 14:00:00 22.5 14 Norte 27 Norte 0 1017 0 41
2018-04-22 13:00:00 22.2 15 Norte 29 Noroeste 0 1017.2 0.2 41
2018-04-22 12:00:00 22 16 Norte 32 Norte 0 1017.3 0.1 43
2018-04-22 11:00:00 20.1 19 Norte 32 Norte 0 1017 0.4 49
2018-04-22 10:00:00 18.2 13 Norte 21 Noroeste 0 1017 0.6 56
2018-04-22 09:00:00 14.7 4 Sudoeste 12 Sudoeste 0 1017.2 0.7 85
2018-04-22 08:00:00 11.7 4 Sur 9 Sur 0 1016.6 -0.4 90
2018-04-22 07:00:00 11.7 4 Sur 10 Sur 0 1016.4 -1 88
2018-04-22 06:00:00 12.8 4 Sudoeste 12 Oeste 0 1016.5 -1.2 89
2018-04-22 05:00:00 13.2 7 Sudoeste 13 Oeste 0 1017 -1.4 91
2018-04-22 04:00:00 14 8 Oeste 20 Oeste 0 1017.4 -1.1 93
2018-04-22 03:00:00 13.6 8 Sudoeste 14 Sudoeste 0 1017.7 -1 94
2018-04-22 02:00:00 12.4 3 Sudoeste 9 Oeste 0 1018.4 -0.2 91
2018-04-22 01:00:00 12.5 6 Oeste 10 Oeste 0 1018.5 0.2 89
2018-04-22 00:00:00 12.4 3 Sur 6 Sur 0 1018.7 0.7 87
2018-04-21 23:00:00 12.7 2 Sudeste 5 Sudoeste 0 1018.6 0.9 81
2018-04-21 22:00:00 14.1 0 Calma 6 Sudoeste 0 1018.3 0.3 77
2018-04-21 21:00:00 16.4 5 Sudoeste 15 Noroeste 0 1018 -0.4 68
2018-04-21 20:00:00 18.2 9 Norte 18 Norte 0 1017.7 -0.9 54
2018-04-21 19:00:00 18.8 10 Nordeste 16 Norte 0 1018 -0.9 56
2018-04-21 18:00:00 19.7 9 Nordeste 23 Norte 0 1018.4 -0.8 52
2018-04-21 17:00:00 19.6 15 Norte 24 Norte 0 1018.6 -0.5 53
2018-04-21 16:00:00 19.6 9 Norte 23 Norte 0 1018.9 -0.8 58
2018-04-21 15:00:00 19.2 18 Norte 31 Noroeste 0 1019.2 -0.9 58
2018-04-21 14:00:00 19.5 14 Norte 30 Noroeste 0 1019.1 -0.5 60
2018-04-21 13:00:00 19.4 17 Noroeste 30 Noroeste 0 1019.7 0.1 60
2018-04-21 12:00:00 19.5 15 Noroeste 27 Noroeste 0 1020.1 0.5 61
2018-04-21 11:00:00 18.9 16 Noroeste 29 Noroeste 0 1019.6 0.7 63
2018-04-21 10:00:00 18 16 Noroeste 27 Noroeste 0 1019.6 0.7 66
2018-04-21 09:00:00 15.9 11 Oeste 27 Oeste 0 1019.6 0.9 78
2018-04-21 08:00:00 14.5 13 Noroeste 27 Noroeste 0 1018.9 -0.3 84
2018-04-21 07:00:00 14 6 Oeste 26 Oeste 0 1018.9 -0.7 83
2018-04-21 06:00:00 14.1 18 Noroeste 30 Noroeste 0 1018.7 -0.8 87
2018-04-21 05:00:00 13.6 5 Sudoeste 26 Noroeste 0 1019.2 -0.6 85
2018-04-21 04:00:00 13.8 9 Oeste 22 Oeste 0 1019.6 -0.4 89
2018-04-21 03:00:00 14.4 11 Oeste 26 Oeste 0 1019.5 -0.9 86
2018-04-21 02:00:00 13.7 8 Oeste 20 Noroeste 0 1019.8 -0.7 91
2018-04-21 01:00:00 12.7 5 Sudoeste 10 Oeste 0 1020 -0.2 91
2018-04-21 00:00:00 13.2 4 Sudoeste 8 Oeste 0 1020.4 0.5 88
2018-04-20 23:00:00 14 5 Sudoeste 15 Oeste 0 1020.5 0.6 85
2018-04-20 22:00:00 14.8 4 Sudoeste 26 Noroeste 0 1020.2 0.4 79
2018-04-20 21:00:00 15.6 10 Norte 26 Norte 0 1019.9 0.1 78
2018-04-20 20:00:00 17 9 Nordeste 25 Norte 0 1019.9 -0.6 67
2018-04-20 19:00:00 18.2 10 Norte 28 Norte 0 1019.8 -1.1 67
2018-04-20 18:00:00 18.8 15 Norte 28 Norte 0 1019.8 -1.6 65
2018-04-20 17:00:00 19.7 14 Norte 27 Noroeste 0 1020.5 -0.9 59
2018-04-20 16:00:00 19.1 12 Norte 24 Norte 0 1020.9 -0.5 65
2018-04-20 15:00:00 17.9 13 Norte 29 Nordeste 0 1021.4 -0.1 68
2018-04-20 14:00:00 18.4 18 Norte 29 Norte 0 1021.4 0.1 68
2018-04-20 13:00:00 18.4 18 Norte 32 Norte 0 1021.4 0.3 68
2018-04-20 12:00:00 18.7 17 Norte 30 Norte 0 1021.5 0.5 68
2018-04-20 11:00:00 16.6 12 Norte 23 Nordeste 0 1021.3 0.7 76
2018-04-20 10:00:00 15.7 15 Norte 23 Nordeste 0 1021.1 0.8 80
2018-04-20 09:00:00 15.1 13 Norte 23 Norte 0 1021 0.5 85
2018-04-20 08:00:00 15 14 Norte 21 Norte 0 1020.6 0 88
2018-04-20 07:00:00 14.6 10 Norte 22 Norte 0 1020.3 -0.8 87
2018-04-20 06:00:00 14.4 10 Norte 26 Norte 0 1020.5 -1 87
2018-04-20 05:00:00 14.4 15 Norte 29 Norte 0 1020.6 -1.2 87
2018-04-20 04:00:00 14.5 10 Norte 23 Noroeste 0 1021.1 -1.2 85
2018-04-20 03:00:00 14.8 13 Norte 30 Noroeste 0 1021.5 -1 84
2018-04-20 02:00:00 14.2 4 Oeste 18 Nordeste 0 1021.8 -0.8 83
2018-04-20 01:00:00 14.7 3 Sur 18 Noroeste 0 1022.3 0 83
2018-04-20 00:00:00 15.1 11 Norte 18 Norte 0 1022.5 0.6 82
2018-04-19 23:00:00 15.5 9 Noroeste 19 Norte 0 1022.6 0.9 80
2018-04-19 22:00:00 15.5 7 Norte 15 Noroeste 0 1022.3 0.5 80
2018-04-19 21:00:00 15.5 3 Nordeste 21 Norte 0 1021.9 0 79
2018-04-19 20:00:00 16.1 11 Norte 24 Norte 0 1021.7 -0.6 76
2018-04-19 19:00:00 16.8 17 Norte 28 Norte 0 1021.8 -0.6 71
2018-04-19 18:00:00 17.9 17 Norte 31 Nordeste 0 1021.9 -0.6 66
2018-04-19 17:00:00 18.1 16 Norte 30 Norte 0 1022.3 -0.6 66
2018-04-19 16:00:00 19 21 Norte 35 Norte 0 1022.4 -0.6 63
2018-04-19 15:00:00 20.2 20 Norte 33 Norte 0 1022.5 -0.7 59
2018-04-19 14:00:00 19.9 19 Norte 32 Norte 0 1022.9 -0.2 60
2018-04-19 13:00:00 19.9 16 Norte 30 Norte 0 1023 0.1 60
2018-04-19 12:00:00 19.4 16 Norte 31 Norte 0 1023.2 0.6 63
2018-04-19 11:00:00 18.5 16 Norte 31 Noroeste 0 1023.1 0.7 66
2018-04-19 10:00:00 17.4 14 Norte 31 Norte 0 1022.9 0.9 69
2018-04-19 09:00:00 16.3 9 Noroeste 25 Oeste 0 1022.6 0.4 71
2018-04-19 08:00:00 14.2 3 Oeste 15 Oeste 0 1022.4 0.2 80
2018-04-19 07:00:00 14 6 Noroeste 20 Noroeste 0 1022 -0.5 83
2018-04-19 06:00:00 14.7 11 Noroeste 24 Noroeste 0 1022.2 -0.6 87
2018-04-19 05:00:00 14.9 9 Noroeste 23 Noroeste 0 1022.2 -1.1 87
2018-04-19 04:00:00 13.9 6 Sur 19 Noroeste 0 1022.5 -1 79
2018-04-19 03:00:00 11.5 5 Noroeste 9 Noroeste 0 1022.8 -0.9 82
2018-04-19 02:00:00 13.4 2 Sudoeste 19 Noroeste 0 1023.3 -0.3 72
2018-04-19 01:00:00 14.9 6 Noroeste 19 Noroeste 0 1023.5 0.2 80
2018-04-19 00:00:00 12.7 5 Sudoeste 9 Oeste 0 1023.7 0.9 66
2018-04-18 23:00:00 14.8 3 Sudoeste 13 Noroeste 0 1023.6 0.9 59
2018-04-18 22:00:00 15.9 3 Sur 10 Nordeste 0 1023.3 0.7 53
2018-04-18 21:00:00 18.6 6 Norte 12 Norte 0 1022.8 0 37
2018-04-18 20:00:00 20.7 8 Nordeste 13 Este 0 1022.7 -0.2 31
2018-04-18 19:00:00 22.2 7 Este 15 Este 0 1022.6 -0.7 32
2018-04-18 18:00:00 22.4 7 Este 16 Este 0 1022.8 -0.8 33
2018-04-18 17:00:00 21.3 10 Este 16 Este 0 1022.9 -0.9 46
2018-04-18 16:00:00 21.9 6 Sudeste 23 Este 0 1023.3 -0.8 51
2018-04-18 15:00:00 20.8 13 Este 21 Este 0 1023.6 -0.6 47
2018-04-18 14:00:00 23 10 Sudeste 20 Sudeste 0 1023.8 -0.3 41
2018-04-18 13:00:00 24.3 9 Norte 18 Nordeste 0 1024.1 0 34
2018-04-18 12:00:00 22.9 7 Sudeste 13 Sudeste 0 1024.2 0.3 39
2018-04-18 11:00:00 21.4 4 Nordeste 9 Nordeste 0 1024.1 0.5 46
2018-04-18 10:00:00 18.3 3 Sur 7 Sudoeste 0 1024.1 0.9 57
2018-04-18 09:00:00 13.2 5 Sudoeste 10 Oeste 0 1023.9 0.7 79
2018-04-18 08:00:00 8.6 8 Sudoeste 10 Sudoeste 0 1023.6 0.2 89
2018-04-18 07:00:00 8.2 9 Sudoeste 11 Sudoeste 0 1023.2 -0.1 88
2018-04-18 06:00:00 8.7 6 Sudoeste 11 Sudoeste 0 1023.2 -0.2 88
2018-04-18 05:00:00 9.1 6 Sudoeste 9 Sudoeste 0 1023.4 -0.2 84
2018-04-18 04:00:00 11.4 7 Oeste 14 Oeste 0 1023.3 -0.3 76
2018-04-18 03:00:00 12.1 9 Oeste 14 Oeste 0 1023.4 0 72
2018-04-18 02:00:00 13.5 7 Oeste 11 Oeste 0 1023.6 0.1 71
2018-04-18 01:00:00 13.8 5 Oeste 14 Oeste 0 1023.6 0.7 72
2018-04-18 00:00:00 14.7 9 Oeste 16 Oeste 0 1023.4 1.2 69
2018-04-17 23:00:00 14.6 6 Sudoeste 15 Sudoeste 0 1023.5 1.6 68
2018-04-17 22:00:00 15.7 10 Sudoeste 15 Oeste 0 1022.9 1 64
2018-04-17 21:00:00 16.9 8 Oeste 14 Oeste 0 1022.2 0.4 60
2018-04-17 20:00:00 19.5 6 Sudoeste 17 Sudoeste 0 1021.9 -0.2 47
2018-04-17 19:00:00 21.8 10 Sudoeste 22 Sudoeste 0 1021.9 -0.4 39
2018-04-17 18:00:00 22.9 8 Sur 18 Sur 0 1021.8 -0.8 37
2018-04-17 17:00:00 23.1 9 Sudeste 19 Sur 0 1022.1 -0.8 38
2018-04-17 16:00:00 23.1 8 Sur 18 Nordeste 0 1022.3 -0.9 39
2018-04-17 15:00:00 21.2 10 Nordeste 18 Nordeste 0 1022.6 -0.7 37
2018-04-17 14:00:00 20.6 8 Este 18 Nordeste 0 1022.9 -0.1 40
2018-04-17 13:00:00 20.4 8 Este 15 Nordeste 0 1023.2 0.7 43
2018-04-17 12:00:00 20.1 7 Este 16 Este 0 1023.3 1.4 48
2018-04-17 11:00:00 18.7 6 Este 11 Este 0 1023 1.7 57
2018-04-17 10:00:00 17.4 5 Este 10 Nordeste 0 1022.5 1.6 64
2018-04-17 09:00:00 12.8 8 Sudoeste 13 Oeste 0 1021.9 1.6 80
2018-04-17 08:00:00 8.8 8 Sudoeste 13 Sudoeste 0 1021.3 1 89
2018-04-17 07:00:00 8.7 9 Sudoeste 14 Oeste 0 1020.9 0.7 88
2018-04-17 06:00:00 8.8 8 Sudoeste 10 Sudoeste 0 1020.3 0.1 89
2018-04-17 05:00:00 9.2 9 Sudoeste 12 Sudoeste 0 1020.3 0.2 87
2018-04-17 04:00:00 9.4 7 Oeste 12 Sudoeste 0 1020.2 0.7 86
2018-04-17 03:00:00 10.4 9 Sudoeste 13 Sudoeste 0 1020.2 0.9 83
2018-04-17 02:00:00 11.3 5 Oeste 14 Oeste 0 1020.1 1.1 80
2018-04-17 01:00:00 11.7 5 Sudoeste 12 Oeste 0 1019.5 1.3 78
2018-04-17 00:00:00 12 6 Oeste 10 Oeste 0 1019.3 2 80
2018-04-16 23:00:00 12.8 5 Sudoeste 8 Oeste 0 1019 2.5 79
2018-04-16 22:00:00 13 4 Oeste 8 Oeste 0 1018.2 2.5 76
2018-04-16 21:00:00 14.7 2 Sur 14 Nordeste 0 1017.3 3 68
2018-04-16 20:00:00 15.7 6 Nordeste 15 Este 0 1016.5 2.7 63
2018-04-16 19:00:00 15.9 6 Este 18 Nordeste 0 1015.7 2.1 68
2018-04-16 18:00:00 15.9 5 Este 16 Este 0 1014.3 0.8 71
2018-04-16 17:00:00 17.4 6 Sudeste 22 Norte 0 1013.8 0.2 60
2018-04-16 16:00:00 19.7 12 Noroeste 40 Oeste 0 1013.6 0 41
2018-04-16 15:00:00 20.4 17 Noroeste 40 Oeste 0 1013.5 0 36
2018-04-16 14:00:00 21.4 18 Oeste 43 Oeste 0 1013.6 0.2 34
2018-04-16 13:00:00 20.6 22 Oeste 44 Sudoeste 0 1013.6 1 36
2018-04-16 12:00:00 19.6 20 Oeste 44 Oeste 0 1013.5 0.6 41
2018-04-16 11:00:00 18.5 17 Oeste 40 Oeste 0 1013.4 0.5 49
2018-04-16 10:00:00 15.9 12 Oeste 24 Oeste 0 1012.6 -0.2 66
2018-04-16 09:00:00 12.3 5 Sudoeste 24 Oeste 2 1012.9 0.9 83
2018-04-16 08:00:00 12.8 14 Oeste 51 Oeste 1.8 1012.9 1.2 75
2018-04-16 07:00:00 14.7 24 Oeste 59 Oeste 0.2 1012.8 1.3 64
2018-04-16 06:00:00 14.7 8 Oeste 18 Oeste 0 1012 0.1 70
2018-04-16 05:00:00 13.5 0 Calma 8 Noroeste 0 1011.7 -0.7 72
2018-04-16 04:00:00 14.9 2 Noroeste 14 Oeste 0 1011.5 -1.1 63
2018-04-16 03:00:00 13.7 5 Sudoeste 12 Sudoeste 0 1011.9 -0.9 70
2018-04-16 02:00:00 14.4 6 Sudoeste 14 Noroeste 0 1012.4 -0.7 65
2018-04-16 01:00:00 14.6 8 Sudoeste 13 Sudoeste 0 1012.6 -0.5 64
2018-04-16 00:00:00 16.2 8 Oeste 17 Oeste 0 1012.8 0.1 58
2018-04-15 23:00:00 17.1 9 Sudoeste 19 Sudoeste 0 1013.1 1.1 53
2018-04-15 22:00:00 17.9 10 Sudoeste 30 Sudoeste 0 1013.1 1.4 51
2018-04-15 21:00:00 18.9 15 Sudoeste 31 Sudoeste 0 1012.7 0.9 49
2018-04-15 20:00:00 20.9 17 Sudoeste 33 Sudoeste 0 1012 0.1 40
2018-04-15 19:00:00 22.9 13 Sudoeste 30 Sudoeste 0 1011.7 -1 36
2018-04-15 18:00:00 23 17 Sudoeste 37 Sur 0 1011.8 -1.5 39
2018-04-15 17:00:00 25.4 13 Sur 26 Sudeste 0 1011.9 -2 28
2018-04-15 16:00:00 24.9 12 Sur 31 Sudoeste 0 1012.7 -1.9 30
2018-04-15 15:00:00 24.4 15 Sudoeste 28 Sudoeste 0 1013.3 -1.9 30
2018-04-15 14:00:00 24.2 9 Sudeste 20 Sur 0 1013.9 -1.1 31
2018-04-15 13:00:00 22.8 7 Sudeste 18 Este 0 1014.6 -0.3 35
2018-04-15 12:00:00 21.3 10 Este 19 Este 0 1015.2 -0.1 37
2018-04-15 11:00:00 20.4 8 Este 14 Este 0 1015 -0.2 41
2018-04-15 10:00:00 18.3 4 Oeste 10 Oeste 0 1014.9 0.4 47
2018-04-15 09:00:00 13.7 4 Oeste 9 Oeste 0 1015.3 0.8 62
2018-04-15 08:00:00 11.8 8 Oeste 13 Oeste 0 1015.2 0.6 67
2018-04-15 07:00:00 12.6 5 Oeste 10 Sudoeste 0 1014.5 -0.4 64
2018-04-15 06:00:00 12.8 7 Oeste 13 Sudoeste 0 1014.5 -0.8 62
2018-04-15 05:00:00 14.2 4 Oeste 14 Noroeste 0 1014.6 -1 56
2018-04-15 04:00:00 14.9 6 Noroeste 21 Noroeste 0 1014.9 -1.1 52
2018-04-15 03:00:00 14.8 8 Noroeste 21 Noroeste 0 1015.3 -0.8 54
2018-04-15 02:00:00 14.6 9 Noroeste 27 Noroeste 0 1015.6 -0.6 58
2018-04-15 01:00:00 13.7 9 Noroeste 22 Noroeste 0 1016 0 65
2018-04-15 00:00:00 13.9 13 Noroeste 26 Oeste 0 1016.1 0.9 69
2018-04-14 23:00:00 13.5 10 Noroeste 25 Noroeste 0 1016.2 1.3 77
2018-04-14 22:00:00 13.6 13 Norte 30 Norte 0 1016 1.5 81
2018-04-14 21:00:00 13.7 17 Norte 30 Norte 0 1015.2 1.2 82
2018-04-14 20:00:00 14.1 17 Norte 33 Norte 0 1014.9 1.2 81
2018-04-14 19:00:00 14 16 Norte 33 Norte 0 1014.5 0.8 81
2018-04-14 18:00:00 14.6 19 Norte 37 Norte 0 1014 0 79
2018-04-14 17:00:00 14.7 19 Norte 42 Nordeste 0 1013.7 -0.1 80
2018-04-14 16:00:00 14.8 21 Norte 42 Norte 0 1013.7 -0.1 77
2018-04-14 15:00:00 15 25 Norte 41 Norte 0 1014 0.1 77
2018-04-14 14:00:00 15.6 17 Noroeste 41 Norte 0 1013.8 0.4 70
2018-04-14 13:00:00 16.1 22 Noroeste 39 Noroeste 0 1013.8 0.9 64
2018-04-14 12:00:00 15.3 21 Norte 48 Noroeste 0 1013.9 1.5 69
2018-04-14 11:00:00 14.1 22 Norte 42 Noroeste 0 1013.4 1.1 76
2018-04-14 10:00:00 13.6 21 Noroeste 37 Noroeste 0 1012.9 1.4 79
2018-04-14 09:00:00 13.6 17 Norte 27 Norte 0 1012.4 0.6 83
2018-04-14 08:00:00 12.8 12 Norte 22 Norte 0 1012.3 1.1 83
2018-04-14 07:00:00 12.4 11 Norte 19 Norte 0 1011.5 0.5 84
2018-04-14 06:00:00 12.2 5 Norte 11 Norte 0 1011.8 1.6 83
2018-04-14 05:00:00 12.7 6 Nordeste 17 Nordeste 0 1011.2 0.1 81
2018-04-14 04:00:00 12.5 13 Norte 23 Norte 0 1011 0.4 82
2018-04-14 03:00:00 9.8 5 Oeste 13 Sudoeste 0 1010.2 -0.3 85
2018-04-14 02:00:00 10 5 Sudoeste 12 Oeste 0 1011.1 0.9 82
2018-04-14 01:00:00 12.1 6 Oeste 26 Oeste 0 1010.6 1.1 78
2018-04-14 00:00:00 12.4 10 Sudoeste 16 Sudoeste 0 1010.5 2.2 79
2018-04-13 23:00:00 12.3 5 Sudoeste 19 Oeste 0 1010.2 2.3 80
2018-04-13 22:00:00 12.5 4 Oeste 13 Oeste 0 1009.5 2.2 77
2018-04-13 21:00:00 13.2 5 Oeste 21 Sudoeste 0 1008.3 0.8 73
2018-04-13 20:00:00 14.4 10 Sudoeste 28 Sur 0 1007.9 0.6 67
2018-04-13 19:00:00 17.2 11 Sudoeste 29 Sur 0 1007.3 -0.3 57
2018-04-13 18:00:00 17.4 13 Sur 27 Sur 0 1007.5 0.3 51
2018-04-13 17:00:00 17.6 15 Sur 27 Sur 0 1007.3 0.4 45
2018-04-13 16:00:00 17.3 8 Sudeste 24 Sur 0 1007.6 1 49
2018-04-13 15:00:00 18.5 13 Sur 23 Sur 0 1007.2 0.9 45
2018-04-13 14:00:00 16.7 9 Este 21 Este 0 1006.9 1.2 47
2018-04-13 13:00:00 17.8 9 Nordeste 19 Norte 0 1006.6 1.6 41
2018-04-13 12:00:00 17.3 8 Nordeste 21 Nordeste 0 1006.3 1.8 45
2018-04-13 11:00:00 16 4 Nordeste 10 Nordeste 0 1005.7 1.9 50
2018-04-13 10:00:00 14 4 Norte 9 Norte 0 1005 1.8 63
2018-04-13 09:00:00 11.3 4 Sudoeste 5 Sudoeste 0 1004.5 1.6 89
2018-04-13 08:00:00 11.8 0 Calma 6 Norte 0 1003.8 1.2 86
2018-04-13 07:00:00 12.9 4 Nordeste 12 Norte 0 1003.2 1.3 80
2018-04-13 06:00:00 12.4 4 Sur 8 Sur 0 1002.9 1 76
2018-04-13 05:00:00 12.3 5 Sudoeste 12 Oeste 0 1002.6 0.2 74
2018-04-13 04:00:00 13.7 7 Oeste 17 Oeste 0 1001.9 -0.5 75
2018-04-13 03:00:00 13.7 4 Oeste 19 Sur 0 1001.9 -0.4 73
2018-04-13 02:00:00 13.9 5 Sudoeste 21 Sur 0 1002.4 0.1 73
2018-04-13 01:00:00 14.2 9 Sudoeste 21 Sudoeste 0 1002.4 0.1 70
2018-04-13 00:00:00 14.6 3 Sudoeste 21 Sudoeste 0 1002.3 0.2 62
2018-04-12 23:00:00 15 8 Oeste 16 Oeste 0 1002.3 0.7 55
2018-04-12 22:00:00 15.2 12 Sudoeste 26 Sudoeste 0 1002.3 0.9 52
2018-04-12 21:00:00 15 12 Sudoeste 30 Sudoeste 0 1002.1 0.9 51
2018-04-12 20:00:00 15.8 16 Sudoeste 51 Sudoeste 0 1001.6 0.3 47
2018-04-12 19:00:00 17.6 21 Sudoeste 48 Sudoeste 0 1001.4 -0.2 43
2018-04-12 18:00:00 17 21 Sudoeste 48 Sudoeste 0 1001.2 -1.1 49
2018-04-12 17:00:00 19.6 17 Sudoeste 33 Sur 0 1001.3 -1.4 33
2018-04-12 16:00:00 19.9 7 Norte 17 Nordeste 0 1001.6 -1.6 36
2018-04-12 15:00:00 19 6 Nordeste 23 Sudeste 0 1002.3 -0.8 35
2018-04-12 14:00:00 21.1 13 Sudeste 31 Sudeste 0 1002.7 -0.1 30
2018-04-12 13:00:00 21.1 10 Sur 23 Sudeste 0 1003.2 1.1 32
2018-04-12 12:00:00 19.8 12 Noroeste 33 Noroeste 0 1003.1 1.5 33
2018-04-12 11:00:00 17.9 14 Oeste 32 Noroeste 0 1002.8 2.9 37
2018-04-12 10:00:00 15.9 17 Oeste 43 Noroeste 0 1002.1 3 41
2018-04-12 09:00:00 14.6 15 Oeste 59 Oeste 0 1001.6 2.3 44
2018-04-12 08:00:00 14.2 30 Oeste 63 Oeste 0 999.9 0.7 43
2018-04-12 07:00:00 14.7 32 Noroeste 72 Noroeste 0 999.1 -0.3 40
2018-04-12 06:00:00 14.7 36 Noroeste 59 Noroeste 0 999.3 0 40
2018-04-12 05:00:00 14.3 27 Noroeste 45 Oeste 0 999.2 0 41
2018-04-12 04:00:00 14 11 Oeste 28 Oeste 0 999.4 0.6 40
2018-04-12 03:00:00 14 13 Oeste 32 Oeste 0 999.3 0.7 40
2018-04-12 02:00:00 13.7 13 Oeste 41 Oeste 0 999.2 1.1 41
2018-04-12 01:00:00 14.1 18 Oeste 51 Oeste 0 998.8 1.1 41
2018-04-12 00:00:00 14.1 21 Oeste 47 Noroeste 0 998.6 1.1 42
2018-04-11 23:00:00 13.8 19 Oeste 53 Oeste 0 998.1 0.9 44
2018-04-11 22:00:00 12.7 18 Oeste 48 Noroeste 0 997.7 1.2 48
2018-04-11 21:00:00 12.2 22 Oeste 45 Oeste 0 997.5 1.3 52
2018-04-11 20:00:00 12.6 23 Oeste 59 Oeste 0 997.2 0.9 48
2018-04-11 19:00:00 13.3 24 Oeste 55 Oeste 0 996.5 0.3 46
2018-04-11 18:00:00 13.4 30 Oeste 60 Oeste 0 996.2 0.5 47
2018-04-11 17:00:00 13.5 24 Oeste 59 Oeste 0 996.3 0.9 46
2018-04-11 16:00:00 13 32 Oeste 63 Oeste 0 996.2 0.8 48
2018-04-11 15:00:00 13.4 22 Oeste 47 Oeste 0 995.7 0.3 47
2018-04-11 14:00:00 14.5 23 Oeste 44 Oeste 0 995.4 0.3 39
2018-04-11 13:00:00 14.4 23 Oeste 43 Oeste 0 995.4 0.1 41
2018-04-11 12:00:00 15.3 25 Oeste 48 Oeste 0 995.4 0.2 37
2018-04-11 11:00:00 14.3 17 Oeste 38 Oeste 0 995.1 0.2 43
2018-04-11 10:00:00 11.5 11 Sudoeste 27 Sudoeste 0 995.3 0.7 57
2018-04-11 09:00:00 9.1 9 Sudoeste 19 Sudoeste 0 995.2 0.7 69
2018-04-11 08:00:00 8 10 Sudoeste 28 Oeste 0 994.9 0.9 67
2018-04-11 07:00:00 7.8 11 Oeste 19 Sudoeste 0 994.6 0.7 70
2018-04-11 06:00:00 6.9 7 Sur 17 Noroeste 0 994.5 0.1 78
2018-04-11 05:00:00 7.8 7 Sur 23 Oeste 0 994 -0.2 78
2018-04-11 04:00:00 8.2 5 Oeste 12 Noroeste 0 993.9 -1.9 90
2018-04-11 03:00:00 8.2 4 Sudoeste 9 Norte 0.2 994.4 0 91
2018-04-11 02:00:00 8.6 3 Oeste 21 Sudoeste 8.4 994.2 -0.6 90
2018-04-11 01:00:00 9.4 14 Oeste 63 Sudoeste 8.6 995.8 0.5 83
2018-04-11 00:00:00 13.8 28 Sudoeste 63 Sudoeste 0 994.4 -1.3 77
2018-04-10 23:00:00 14.6 22 Sudoeste 57 Sudoeste 0 994.8 -2.3 68
2018-04-10 22:00:00 14.5 31 Sudoeste 63 Sudoeste 0 995.3 -3 69
2018-04-10 21:00:00 14.4 17 Sur 52 Sur 0 995.7 -3.6 68
2018-04-10 20:00:00 14.4 22 Sur 47 Sudoeste 0 997.1 -3.2 67
2018-04-10 19:00:00 15.1 19 Sur 41 Sudoeste 0 998.3 -2.9 66
2018-04-10 18:00:00 15.2 9 Sudoeste 28 Sudoeste 0 999.3 -2.8 63
2018-04-10 17:00:00 15.2 16 Sudoeste 37 Sudoeste 0 1000.3 -2.7 61
2018-04-10 16:00:00 15.8 19 Sudoeste 40 Sur 0 1001.2 -2.7 52
2018-04-10 15:00:00 17.6 24 Sudoeste 47 Sudoeste 0 1002.1 -2.6 55
2018-04-10 14:00:00 18.4 22 Sudoeste 49 Sudoeste 0 1003 -2.5 37
2018-04-10 13:00:00 18.5 25 Sur 42 Sudoeste 0 1003.9 -2 35
2018-04-10 12:00:00 17.7 19 Sur 39 Sudoeste 0 1004.7 -1.9 38
2018-04-10 11:00:00 16.6 19 Sur 31 Sur 0 1005.5 -1.3 41
2018-04-10 10:00:00 15.3 9 Sudoeste 24 Sudoeste 0 1005.9 -1.3 45
2018-04-10 09:00:00 12.5 11 Sudoeste 18 Sudoeste 0 1006.6 -0.9 54
2018-04-10 08:00:00 7.2 4 Oeste 10 Sudoeste 0 1006.8 -1.2 68
2018-04-10 07:00:00 7.7 6 Noroeste 11 Oeste 0 1007.2 -2.1 65
2018-04-10 06:00:00 9.3 8 Sudoeste 18 Oeste 0 1007.5 -2.2 59
2018-04-10 05:00:00 11.8 10 Oeste 30 Noroeste 0 1008 -2 49
2018-04-10 04:00:00 10.3 9 Oeste 18 Oeste 0 1009.3 -0.8 54
2018-04-10 03:00:00 10.8 9 Oeste 20 Oeste 0 1009.7 0 50
2018-04-10 02:00:00 10.8 10 Sudoeste 19 Oeste 0 1010 0.3 51
2018-04-10 01:00:00 12.4 8 Oeste 36 Noroeste 0 1010.1 1 43
2018-04-10 00:00:00 12.6 12 Oeste 39 Noroeste 0 1009.7 2 41
2018-04-09 23:00:00 12.9 16 Oeste 30 Noroeste 0 1009.7 2.4 41
2018-04-09 22:00:00 13.9 10 Oeste 25 Noroeste 0 1009.1 1.8 38
2018-04-09 21:00:00 13.9 7 Oeste 19 Noroeste 0 1007.7 -0.1 55
2018-04-09 20:00:00 15.5 10 Sudoeste 23 Sudoeste 0 1007.3 0.9 58
2018-04-09 19:00:00 14.2 7 Sudeste 22 Noroeste 0 1007.3 0.4 60
2018-04-09 18:00:00 14.9 13 Noroeste 49 Sur 0 1007.8 0.2 61
2018-04-09 17:00:00 18.8 22 Sur 49 Sur 0 1006.4 -2 49
2018-04-09 16:00:00 19.9 23 Sur 50 Sur 0 1006.9 -1.8 37
2018-04-09 15:00:00 18.4 21 Sudoeste 44 Sudoeste 0 1007.6 -0.9 34
2018-04-09 14:00:00 16.8 12 Este 24 Este 0 1008.4 0.1 51
2018-04-09 13:00:00 17.6 7 Nordeste 26 Este 0 1008.7 0.9 46
2018-04-09 12:00:00 18.6 14 Norte 25 Norte 0 1008.5 1.1 38
2018-04-09 11:00:00 17.8 15 Norte 32 Norte 0 1008.3 1.3 43
2018-04-09 10:00:00 16.6 18 Norte 30 Noroeste 0 1007.8 1 44
2018-04-09 09:00:00 12.9 5 Oeste 13 Sudoeste 0 1007.4 0.7 58
2018-04-09 08:00:00 9.4 9 Oeste 14 Oeste 0 1007 0.4 66
2018-04-09 07:00:00 7.7 7 Oeste 13 Oeste 0 1006.8 0 73
2018-04-09 06:00:00 6.9 5 Oeste 10 Oeste 0 1006.7 -0.2 77
2018-04-09 05:00:00 7 6 Sudoeste 8 Oeste 0 1006.6 -0.5 75
2018-04-09 04:00:00 8.8 5 Oeste 12 Sudoeste 0 1006.8 -0.1 65
2018-04-09 03:00:00 10.2 7 Sudoeste 15 Oeste 0 1006.9 -0.2 60
2018-04-09 02:00:00 13.2 12 Sudoeste 24 Oeste 0 1007.1 0.1 50
2018-04-09 01:00:00 13.1 10 Sudoeste 19 Sudoeste 0 1006.9 0.3 50
2018-04-09 00:00:00 15 10 Oeste 22 Oeste 0 1007.1 1.3 43
2018-04-08 23:00:00 14.7 8 Oeste 19 Oeste 0 1007 1.9 44
2018-04-08 22:00:00 15.3 5 Oeste 22 Noroeste 0 1006.6 2 41
2018-04-08 21:00:00 17.5 12 Oeste 29 Oeste 0 1005.8 1.4 34
2018-04-08 20:00:00 19.5 15 Oeste 33 Oeste 0 1005.1 0.4 30
2018-04-08 19:00:00 21.1 13 Oeste 33 Noroeste 0 1004.6 -0.6 26
2018-04-08 18:00:00 21.9 20 Noroeste 41 Noroeste 0 1004.4 -1.1 25
2018-04-08 17:00:00 21.8 13 Oeste 30 Sudoeste 0 1004.7 -1.1 29
2018-04-08 16:00:00 19.6 15 Sur 24 Sur 0 1005.2 -0.8 34
2018-04-08 15:00:00 18.3 11 Sudeste 20 Sudeste 0 1005.5 -0.2 38
2018-04-08 14:00:00 19.6 10 Oeste 25 Noroeste 0 1005.8 0.2 35
2018-04-08 13:00:00 19.4 17 Oeste 30 Oeste 0 1006 1 34
2018-04-08 12:00:00 19.6 14 Oeste 26 Oeste 0 1005.7 0.9 36
2018-04-08 11:00:00 18.2 17 Oeste 31 Oeste 0 1005.6 0.9 41
2018-04-08 10:00:00 16.3 15 Oeste 31 Oeste 0 1005 0.5 48
2018-04-08 09:00:00 12.7 8 Sudoeste 16 Sudoeste 0 1004.8 0.1 61
2018-04-08 08:00:00 9.9 12 Sudoeste 21 Oeste 0 1004.7 -0.3 69
2018-04-08 07:00:00 10.6 12 Oeste 19 Oeste 0 1004.5 -0.6 67
2018-04-08 06:00:00 8.4 7 Oeste 11 Sudoeste 0 1004.7 -0.3 81
2018-04-08 05:00:00 10.2 2 Oeste 12 Oeste 0 1005 -0.1 81
2018-04-08 04:00:00 10.2 8 Oeste 14 Sudoeste 0 1005.1 -0.1 74
2018-04-08 03:00:00 11.3 10 Sudoeste 20 Oeste 0 1005 -1.1 70
2018-04-08 02:00:00 12.8 14 Oeste 24 Oeste 0 1005.1 -0.5 63
2018-04-08 01:00:00 12.8 13 Oeste 36 Oeste 0 1005.2 -0.4 69
2018-04-08 00:00:00 12.5 8 Noroeste 20 Norte 0 1006.1 1.3 81
2018-04-07 23:00:00 12.7 9 Noroeste 28 Oeste 2 1005.6 1 83
2018-04-07 22:00:00 14.5 17 Noroeste 42 Noroeste 0 1005.6 1.3 70
2018-04-07 21:00:00 15.5 8 Sudoeste 28 Sur 0 1004.8 0.8 81
2018-04-07 20:00:00 15.8 16 Sur 29 Sur 0 1004.6 0.4 78
2018-04-07 19:00:00 16.7 9 Sudoeste 22 Norte 0 1004.3 0 72
2018-04-07 18:00:00 17.9 13 Noroeste 27 Noroeste 0 1004 -1 65
2018-04-07 17:00:00 19.7 15 Oeste 29 Oeste 0 1004.2 -0.8 57
2018-04-07 16:00:00 17.5 17 Noroeste 30 Oeste 0 1004.3 -1.2 68
2018-04-07 15:00:00 18.6 13 Noroeste 32 Noroeste 0 1005 -1 65
2018-04-07 14:00:00 18.4 19 Norte 37 Norte 0 1005 -0.8 68
2018-04-07 13:00:00 18.3 18 Norte 39 Noroeste 0 1005.5 -0.4 69
2018-04-07 12:00:00 17 12 Noroeste 32 Noroeste 0 1006 0.1 71
2018-04-07 11:00:00 17.2 15 Noroeste 29 Norte 0 1005.8 0.5 72
2018-04-07 10:00:00 15.6 15 Noroeste 31 Norte 0 1005.9 0.4 80
2018-04-07 09:00:00 14.7 15 Norte 33 Noroeste 0 1005.9 0.3 83
2018-04-07 08:00:00 14.3 18 Norte 35 Norte 0 1005.3 -0.8 83
2018-04-07 07:00:00 14.1 22 Norte 43 Norte 0 1005.5 -0.9 88
2018-04-07 06:00:00 14.1 25 Norte 40 Norte 0 1005.6 -1.4 86
2018-04-07 05:00:00 14.1 24 Norte 44 Noroeste 0 1006.1 -2 85
2018-04-07 04:00:00 14.3 26 Norte 44 Norte 0 1006.4 -2.2 86
2018-04-07 03:00:00 14.3 25 Norte 39 Norte 0 1007 -1.6 83
2018-04-07 02:00:00 14.5 15 Norte 36 Norte 0 1008.1 -1.1 81
2018-04-07 01:00:00 14.6 22 Norte 50 Noroeste 0 1008.6 -0.5 83
2018-04-07 00:00:00 14.5 27 Norte 44 Norte 0 1008.6 -0.8 84
2018-04-06 23:00:00 14.6 17 Noroeste 36 Norte 0 1009.2 0.2 84
2018-04-06 22:00:00 14.7 19 Norte 35 Noroeste 0 1009.1 0.1 84
2018-04-06 21:00:00 14.9 17 Norte 35 Noroeste 0 1009.4 -0.2 81
2018-04-06 20:00:00 15.3 17 Noroeste 31 Norte 0 1009 -1.5 72
2018-04-06 19:00:00 16 14 Norte 34 Noroeste 0 1009 -2.1 73
2018-04-06 18:00:00 16.6 18 Norte 28 Norte 0 1009.6 -1.8 69
2018-04-06 17:00:00 17.7 14 Norte 24 Norte 0 1010.5 -2 67
2018-04-06 16:00:00 17.7 14 Norte 27 Norte 0 1011.1 -2.2 65
2018-04-06 15:00:00 19.6 17 Norte 27 Norte 0 1011.4 -1.8 59
2018-04-06 14:00:00 18.2 14 Norte 24 Norte 0 1012.5 -1.1 60
2018-04-06 13:00:00 19.9 8 Nordeste 23 Noroeste 0 1013.3 -0.4 51
2018-04-06 12:00:00 18.2 14 Noroeste 24 Noroeste 0 1013.2 -0.9 61
2018-04-06 11:00:00 16.4 8 Noroeste 15 Norte 0 1013.6 -0.6 67
2018-04-06 10:00:00 14.9 5 Oeste 12 Oeste 0 1013.7 -0.1 73
2018-04-06 09:00:00 10.3 7 Sudoeste 10 Sudoeste 0 1014.1 -0.1 84
2018-04-06 08:00:00 8.4 5 Sudoeste 10 Oeste 0 1014.2 -0.8 84
2018-04-06 07:00:00 8.5 5 Sudoeste 11 Sudoeste 0 1013.8 -1.1 87
2018-04-06 06:00:00 8.4 6 Sudoeste 8 Sudoeste 0 1014.2 -1.3 86
2018-04-06 05:00:00 9.1 5 Sudoeste 14 Oeste 0 1015 -1 82
2018-04-06 04:00:00 9 7 Oeste 11 Sudoeste 0 1014.9 -1.7 85
2018-04-06 03:00:00 9.7 0 Calma 5 Oeste 0 1015.5 -1.1 81
2018-04-06 02:00:00 12.4 4 Oeste 10 Oeste 0 1016 -0.5 77
2018-04-06 01:00:00 11.3 4 Sudoeste 12 Sudoeste 0 1016.6 0.5 76
2018-04-06 00:00:00 12.3 3 Sudoeste 10 Oeste 0 1016.6 0.2 69
2018-04-05 23:00:00 12.6 5 Sudoeste 10 Sudoeste 0 1016.5 0 67
2018-04-05 22:00:00 12.8 3 Sudoeste 9 Sudoeste 0 1016.1 -0.7 67
2018-04-05 21:00:00 14.7 6 Sudoeste 18 Sudoeste 0 1016.4 -0.5 66
2018-04-05 20:00:00 16.6 8 Sur 21 Sur 0 1016.5 -0.9 56
2018-04-05 19:00:00 18.7 8 Sur 23 Sur 0 1016.8 -1.2 48
2018-04-05 18:00:00 20 12 Sudeste 23 Sur 0 1016.9 -1.6 41
2018-04-05 17:00:00 20.3 11 Sudeste 21 Sur 0 1017.4 -1.4 40
2018-04-05 16:00:00 21 9 Sudeste 26 Este 0 1018 -1.3 37
2018-04-05 15:00:00 19.2 13 Este 23 Este 0 1018.5 -0.9 44
2018-04-05 14:00:00 20 10 Este 25 Este 0 1018.8 -0.5 44
2018-04-05 13:00:00 20.7 10 Este 18 Nordeste 0 1019.3 0.4 29
2018-04-05 12:00:00 22.1 12 Norte 19 Norte 0 1019.4 0.8 29
2018-04-05 11:00:00 21 10 Norte 20 Norte 0 1019.3 1.2 33
2018-04-05 10:00:00 18.9 7 Oeste 15 Noroeste 0 1018.9 0.9 40
2018-04-05 09:00:00 13.7 6 Sudoeste 17 Oeste 0 1018.6 0.9 58
2018-04-05 08:00:00 10.8 6 Oeste 16 Oeste 0 1018.1 0.4 65
2018-04-05 07:00:00 10.7 11 Sudoeste 15 Oeste 0 1018 0.4 64
2018-04-05 06:00:00 11.7 10 Sudoeste 15 Oeste 0 1017.7 0.3 59
2018-04-05 05:00:00 10.5 8 Sudoeste 12 Sudoeste 0 1017.7 0.6 63
2018-04-05 04:00:00 11.9 2 Nordeste 13 Sudoeste 0 1017.6 0.1 56
2018-04-05 03:00:00 16.6 10 Sudoeste 42 Noroeste 0 1017.4 0.1 41
2018-04-05 02:00:00 16 12 Oeste 24 Noroeste 0 1017.1 0.3 42
2018-04-05 01:00:00 14.2 6 Sudoeste 26 Oeste 0 1017.5 1.5 46
2018-04-05 00:00:00 13.8 6 Oeste 12 Oeste 0 1017.3 2.6 45
2018-04-04 23:00:00 13.8 9 Sudoeste 13 Sudoeste 0 1016.8 2.8 47
2018-04-04 22:00:00 16.2 6 Sudoeste 14 Oeste 0 1016 2.4 38
2018-04-04 21:00:00 18.7 7 Oeste 28 Oeste 0 1014.7 1.4 31
2018-04-04 20:00:00 19.9 15 Noroeste 28 Noroeste 0 1014 0.7 28
2018-04-04 19:00:00 20.2 3 Sudeste 14 Este 0 1013.6 0.2 44
2018-04-04 18:00:00 20.2 6 Sudeste 21 Sudeste 0 1013.3 0.5 39
2018-04-04 17:00:00 20.2 7 Nordeste 18 Sudeste 0 1013.3 0.4 37
2018-04-04 16:00:00 22 9 Norte 31 Oeste 0 1013.4 0.6 37
2018-04-04 15:00:00 24.5 17 Noroeste 39 Noroeste 0 1012.8 -0.2 26
2018-04-04 14:00:00 24.2 17 Oeste 37 Oeste 0 1012.9 0.2 21
2018-04-04 13:00:00 22.7 19 Noroeste 48 Noroeste 0 1012.8 0.8 25
2018-04-04 12:00:00 22 19 Noroeste 34 Noroeste 0 1013 1.5 29
2018-04-04 11:00:00 21.2 15 Oeste 29 Noroeste 0 1012.7 1.7 29
2018-04-04 10:00:00 19.1 13 Oeste 28 Noroeste 0 1012 1.7 32
2018-04-04 09:00:00 12.5 4 Sur 11 Oeste 0 1011.5 2 70
2018-04-04 08:00:00 9 6 Sudoeste 12 Oeste 0 1011 1.9 75
2018-04-04 07:00:00 9.6 8 Oeste 15 Sudoeste 0 1010.3 1.7 78
2018-04-04 06:00:00 9.3 10 Sudoeste 13 Sudoeste 0 1009.5 0.8 88
2018-04-04 05:00:00 11.4 5 Sudoeste 18 Sudoeste 0 1009.1 0 86
2018-04-04 04:00:00 12.4 11 Oeste 14 Oeste 0 1008.6 -0.1 91
2018-04-04 03:00:00 13.5 4 Oeste 18 Sudoeste 0 1008.7 0.3 90
2018-04-04 02:00:00 14 5 Sudoeste 20 Sudoeste 0 1009.1 0.7 90
2018-04-04 01:00:00 13.7 3 Sudoeste 12 Sudoeste 0 1008.7 1.1 88
2018-04-04 00:00:00 14.1 2 Noroeste 15 Oeste 0 1008.4 1.8 82
2018-04-03 23:00:00 15 9 Oeste 21 Sudoeste 0 1008.4 1.9 81
2018-04-03 22:00:00 15.5 12 Sudoeste 26 Sudoeste 0 1007.6 1.2 76
2018-04-03 21:00:00 16.6 13 Sudoeste 26 Oeste 0 1006.6 0.4 66
2018-04-03 20:00:00 18.7 7 Oeste 30 Sudoeste 0 1006.5 -0.1 53
2018-04-03 19:00:00 21 14 Sudoeste 34 Sudoeste 0 1006.4 -0.9 40
2018-04-03 18:00:00 22.5 14 Sur 31 Sur 0 1006.2 -1.9 39
2018-04-03 17:00:00 22.7 13 Sudoeste 25 Sur 0 1006.6 -1.7 40
2018-04-03 16:00:00 22.7 13 Sur 29 Sudoeste 0 1007.3 -1.7 39
2018-04-03 15:00:00 21.6 15 Sudoeste 26 Sudoeste 0 1008.1 -1 45
2018-04-03 14:00:00 22.2 15 Sudoeste 32 Sudoeste 0 1008.3 -0.6 41
2018-04-03 13:00:00 19.8 19 Sudoeste 31 Sudoeste 0 1009 0.4 52
2018-04-03 12:00:00 21.4 8 Sudeste 19 Sudeste 0 1009.1 0.6 46
2018-04-03 11:00:00 18.2 6 Sudoeste 15 Oeste 0 1008.9 0.8 59
2018-04-03 10:00:00 14.1 4 Oeste 13 Oeste 0 1008.6 0.9 79
2018-04-03 09:00:00 9.9 4 Oeste 14 Oeste 0 1008.5 1 91
2018-04-03 08:00:00 8 7 Sudoeste 12 Sudoeste 0 1008.1 0.3 90
2018-04-03 07:00:00 8 6 Sudoeste 11 Oeste 0 1007.7 -0.2 91
2018-04-03 06:00:00 7.5 8 Sudoeste 14 Oeste 0 1007.5 -0.7 91
2018-04-03 05:00:00 7.3 10 Oeste 14 Oeste 0 1007.8 -0.6 93
2018-04-03 04:00:00 7.9 3 Oeste 12 Sudoeste 0 1007.9 -0.3 92
2018-04-03 03:00:00 7.8 9 Sudoeste 12 Sudoeste 0 1008.2 -0.5 92
2018-04-03 02:00:00 8.7 5 Sudoeste 12 Sudoeste 0 1008.4 -0.2 91
2018-04-03 01:00:00 9.9 5 Sudoeste 9 Oeste 0 1008.2 0.7 89
2018-04-03 00:00:00 10.2 3 Oeste 8 Oeste 0 1008.7 2 86
2018-04-02 23:00:00 12.2 3 Oeste 24 Norte 0 1008.6 2.3 82
2018-04-02 22:00:00 13 8 Nordeste 26 Norte 0 1007.5 0.7 83
2018-04-02 21:00:00 13.5 15 Norte 27 Noroeste 0 1006.7 -0.1 80
2018-04-02 20:00:00 14.1 15 Norte 26 Norte 0 1006.3 -0.3 76
2018-04-02 19:00:00 15.5 17 Norte 33 Norte 0 1006.8 -1.2 70
2018-04-02 18:00:00 16.9 21 Norte 40 Norte 0 1006.8 -1.5 62
2018-04-02 17:00:00 17.3 23 Norte 40 Norte 0 1006.6 -2.1 58
2018-04-02 16:00:00 16.8 19 Norte 38 Norte 0 1008 -1.6 63
2018-04-02 15:00:00 16.8 19 Norte 39 Norte 0 1008.3 -1.2 62
2018-04-02 14:00:00 15.7 21 Norte 37 Norte 0 1008.7 -0.8 68
2018-04-02 13:00:00 16 18 Norte 34 Norte 0 1009.6 0.1 66
2018-04-02 12:00:00 17.1 16 Norte 38 Noroeste 0 1009.5 0 60
2018-04-02 11:00:00 15.7 22 Norte 38 Noroeste 0 1009.5 0 66
2018-04-02 10:00:00 13.9 20 Norte 34 Noroeste 0 1009.5 -0.2 74
2018-04-02 09:00:00 12.7 15 Noroeste 28 Noroeste 0 1009.5 -0.4 79
2018-04-02 08:00:00 9.4 9 Sudoeste 19 Oeste 0 1009.5 -1 76
2018-04-02 07:00:00 8.1 10 Oeste 17 Oeste 0 1009.7 -1.5 77
2018-04-02 06:00:00 7 10 Oeste 13 Sudoeste 0 1009.9 -2.1 87
2018-04-02 05:00:00 7.1 9 Oeste 13 Oeste 0 1010.5 -2.1 90
2018-04-02 04:00:00 7.9 8 Oeste 11 Oeste 0 1011.2 -1.5 91
2018-04-02 03:00:00 8.2 9 Sudoeste 12 Sudoeste 0 1012 -0.9 91
2018-04-02 02:00:00 9.1 5 Oeste 9 Oeste 0 1012.6 -0.8 90
2018-04-02 01:00:00 8.5 4 Sudoeste 5 Sudoeste 0 1012.7 -0.6 86
2018-04-02 00:00:00 10.1 2 Noroeste 7 Sudoeste 0 1012.9 -0.2 84
2018-04-01 23:00:00 11.6 3 Sudoeste 10 Sudoeste 0 1013.4 0.2 81
2018-04-01 22:00:00 12.4 6 Sudoeste 13 Sudoeste 0 1013.3 -0.1 79
2018-04-01 21:00:00 13 6 Sur 19 Sur 0 1013.1 -0.6 71
2018-04-01 20:00:00 15.3 12 Sur 22 Sur 0 1013.2 -1.4 55
2018-04-01 19:00:00 18.4 11 Sur 22 Sur 0 1013.4 -2 33
2018-04-01 18:00:00 19.4 15 Sur 25 Sur 0 1013.7 -2.4 30
2018-04-01 17:00:00 20.6 14 Sur 28 Sur 0 1014.6 -2.2 37
2018-04-01 16:00:00 20.4 15 Sur 28 Sur 0 1015.4 -2.1 34
2018-04-01 15:00:00 20.1 17 Sudeste 28 Sudeste 0 1016.1 -2.1 30
2018-04-01 14:00:00 20.3 11 Sudeste 23 Sur 0 1016.8 -1.9 28
2018-04-01 13:00:00 18.5 10 Este 23 Este 0 1017.5 -0.8 29
2018-04-01 12:00:00 17.7 9 Este 18 Este 0 1018.2 0 39
2018-04-01 11:00:00 16.9 6 Este 15 Este 0 1018.7 1.1 42
2018-04-01 10:00:00 16.2 3 Sudeste 13 Sudoeste 0 1018.3 1.2 36
2018-04-01 09:00:00 9.2 8 Sudoeste 14 Sudoeste 0 1018.2 1.3 58
2018-04-01 08:00:00 7 7 Sudoeste 16 Sudoeste 0 1017.6 1 60
2018-04-01 07:00:00 6.8 4 Noroeste 9 Sudoeste 0 1017.1 0.6 58
2018-04-01 06:00:00 8.9 2 Oeste 13 Oeste 0 1016.9 0.4 48
2018-04-01 05:00:00 9.4 4 Oeste 14 Sudoeste 0 1016.6 0.1 44
2018-04-01 04:00:00 9.3 11 Sudoeste 15 Oeste 0 1016.5 0 44
2018-04-01 03:00:00 13.3 11 Oeste 27 Noroeste 0 1016.5 0.3 31
2018-04-01 02:00:00 15.6 14 Noroeste 30 Noroeste 0 1016.5 0.5 24
2018-04-01 01:00:00 14.8 12 Oeste 23 Oeste 0 1016.5 1.4 25
2018-04-01 00:00:00 14.8 12 Oeste 20 Oeste 0 1016.2 2.4 25
2018-03-31 23:00:00 15.2 10 Oeste 23 Oeste 0 1016 3.2 24
2018-03-31 22:00:00 13.3 8 Oeste 15 Oeste 0 1015.1 2.9 29
2018-03-31 21:00:00 15.9 7 Oeste 22 Oeste 0 1013.8 2 24
2018-03-31 20:00:00 18.1 10 Oeste 33 Oeste 0 1012.8 1.2 20
2018-03-31 19:00:00 20.2 17 Oeste 43 Oeste 0 1012.2 0.5 18
2018-03-31 18:00:00 20.5 22 Oeste 42 Oeste 0 1011.8 -0.1 18
2018-03-31 17:00:00 20.7 21 Oeste 46 Oeste 0 1011.6 -0.2 18
2018-03-31 16:00:00 20.1 23 Oeste 51 Oeste 0 1011.7 0.2 21
2018-03-31 15:00:00 19.2 25 Noroeste 50 Noroeste 0 1011.9 0.8 23
2018-03-31 14:00:00 18.3 21 Oeste 48 Noroeste 0 1011.8 2.2 25
2018-03-31 13:00:00 17.4 25 Oeste 55 Oeste 0 1011.5 2.7 27
2018-03-31 12:00:00 15.9 35 Noroeste 61 Noroeste 0 1011.1 3.1 29
2018-03-31 11:00:00 15 32 Oeste 68 Noroeste 0 1009.6 2.8 30
2018-03-31 10:00:00 13.9 28 Oeste 57 Oeste 0 1008.8 2.4 32
2018-03-31 09:00:00 12.5 21 Oeste 50 Oeste 0 1008 2.1 36
2018-03-31 08:00:00 10.9 23 Oeste 48 Oeste 0 1006.8 1.3 40
2018-03-31 07:00:00 10.6 12 Oeste 27 Oeste 0 1006.4 0.7 45
2018-03-31 06:00:00 10.9 13 Oeste 35 Oeste 0 1005.9 1 46
2018-03-31 05:00:00 11.1 17 Oeste 42 Noroeste 0 1005.5 0.5 52
2018-03-31 04:00:00 13.7 24 Noroeste 45 Oeste 0 1005.7 0.3 38
2018-03-31 03:00:00 8.4 6 Oeste 9 Sudoeste 0 1004.9 -0.6 52
2018-03-31 02:00:00 8.2 2 Norte 11 Sudeste 0 1005 -0.7 52
2018-03-31 01:00:00 11 3 Norte 15 Sudoeste 0 1005.4 0.3 39
2018-03-31 00:00:00 12.6 12 Oeste 22 Oeste 0 1005.5 0.9 33
2018-03-30 23:00:00 12.7 8 Oeste 26 Oeste 0 1005.7 1.8 34
2018-03-30 22:00:00 12.9 8 Oeste 37 Sudoeste 0 1005.1 0.8 37
2018-03-30 21:00:00 14.9 20 Sudoeste 45 Sudoeste 0 1004.6 0.9 35
2018-03-30 20:00:00 14.3 8 Oeste 20 Oeste 0 1003.9 0.3 54
2018-03-30 19:00:00 13.7 8 Sudoeste 42 Noroeste 0 1004.3 0.7 52
2018-03-30 18:00:00 15.4 19 Sudoeste 44 Sudoeste 0 1003.7 -0.5 37
2018-03-30 17:00:00 17.1 24 Sudoeste 53 Sudoeste 0 1003.6 -1.4 41
2018-03-30 16:00:00 17.5 21 Sur 48 Sur 0 1003.6 -2.5 41
2018-03-30 15:00:00 19.1 18 Sur 37 Sur 0 1004.2 -2.5 34
2018-03-30 14:00:00 21.2 19 Sur 34 Sur 0 1005 -1.8 30
2018-03-30 13:00:00 20.4 5 Norte 24 Norte 0 1006.1 -1 31
2018-03-30 12:00:00 20 10 Oeste 34 Noroeste 0 1006.7 -0.1 28
2018-03-30 11:00:00 17 17 Oeste 33 Oeste 0 1006.8 0.4 33
2018-03-30 10:00:00 17 10 Oeste 20 Oeste 0 1007.1 1.4 34
2018-03-30 09:00:00 13.5 8 Sur 14 Noroeste 0 1006.8 1.4 45
2018-03-30 08:00:00 13.5 7 Oeste 28 Noroeste 0 1006.4 1 42
2018-03-30 07:00:00 14.8 17 Oeste 37 Noroeste 0 1005.7 0.5 39
2018-03-30 06:00:00 15 14 Noroeste 35 Noroeste 0 1005.4 0.1 43
2018-03-30 05:00:00 16.4 22 Noroeste 43 Noroeste 0 1005.4 -0.1 38
2018-03-30 04:00:00 16.6 15 Oeste 38 Noroeste 0 1005.2 -0.5 35
2018-03-30 03:00:00 11.2 8 Sudoeste 27 Oeste 0 1005.3 -0.6 57
2018-03-30 02:00:00 9.2 3 Sudoeste 11 Oeste 0 1005.5 -0.3 77
2018-03-30 01:00:00 11.5 9 Sudoeste 15 Oeste 0 1005.7 -0.2 67
2018-03-30 00:00:00 13.3 12 Oeste 18 Oeste 0 1005.9 0.1 64
2018-03-29 23:00:00 14.4 9 Oeste 15 Sudoeste 0 1005.8 -0.1 67
2018-03-29 22:00:00 15.4 8 Sudoeste 22 Sudoeste 0 1005.9 -0.4 58
2018-03-29 21:00:00 15.9 10 Oeste 17 Oeste 0 1005.8 -1 61
2018-03-29 20:00:00 16.6 8 Oeste 15 Sudoeste 0 1005.9 -1.5 66
2018-03-29 19:00:00 17.2 6 Sudoeste 21 Sudoeste 0 1006.3 -1.6 65
2018-03-29 18:00:00 18.5 10 Sur 28 Sur 0 1006.8 -2.1 52
2018-03-29 17:00:00 20.5 15 Sur 26 Sudeste 0 1007.4 -1.5 43
2018-03-29 16:00:00 20.2 9 Este 22 Nordeste 0 1007.9 -1.5 45
2018-03-29 15:00:00 20.8 10 Sudeste 29 Noroeste 0 1008.9 -1 43
2018-03-29 14:00:00 23.4 17 Norte 32 Norte 0 1008.9 -0.9 35
2018-03-29 13:00:00 23.9 17 Norte 31 Norte 0 1009.4 -0.2 30
2018-03-29 12:00:00 23.4 13 Noroeste 27 Noroeste 0 1009.9 0.2 26
2018-03-29 11:00:00 21.6 18 Noroeste 30 Norte 0 1009.8 0.9 29
2018-03-29 10:00:00 21.1 11 Noroeste 22 Noroeste 0 1009.6 1.1 27
2018-03-29 09:00:00 16.2 6 Sudoeste 17 Oeste 0 1009.7 1.4 37
2018-03-29 08:00:00 16.6 11 Oeste 23 Oeste 0 1008.9 0.6 30
2018-03-29 07:00:00 16.8 10 Sudoeste 20 Oeste 0 1008.5 -0.6 27
2018-03-29 06:00:00 18.6 12 Oeste 27 Oeste 0 1008.3 -1.3 21
2018-03-29 05:00:00 19.2 18 Noroeste 31 Oeste 0 1008.3 -1.5 17
2018-03-29 04:00:00 12.8 2 Oeste 17 Sudoeste 0 1009.1 -0.8 41
2018-03-29 03:00:00 17.5 5 Sudoeste 29 Noroeste 0 1009.6 -0.6 27
2018-03-29 02:00:00 14.5 9 Oeste 19 Noroeste 0 1009.8 -0.6 48
2018-03-29 01:00:00 16.2 7 Oeste 14 Oeste 0 1009.9 -0.4 53
2018-03-29 00:00:00 16.4 9 Oeste 19 Oeste 0 1010.2 0.1 53
2018-03-28 23:00:00 16.8 11 Oeste 17 Oeste 0 1010.4 0.3 50
2018-03-28 22:00:00 17.1 11 Sudoeste 25 Sudoeste 0 1010.3 0 48
2018-03-28 21:00:00 18.2 17 Sudoeste 30 Sudoeste 0 1010.1 -0.5 45
2018-03-28 20:00:00 20.3 11 Oeste 27 Sudoeste 0 1010.1 -1.5 34
2018-03-28 19:00:00 23.2 8 Oeste 41 Sur 0 1010.3 -2.6 32
2018-03-28 18:00:00 23.8 21 Sur 40 Sur 0 1010.6 -3.6 29
2018-03-28 17:00:00 24.4 21 Sudoeste 38 Sur 0 1011.6 -3.4 30
2018-03-28 16:00:00 25.3 9 Sudeste 22 Este 0 1012.9 -2.7 24
2018-03-28 15:00:00 25.1 12 Sudeste 22 Sudeste 0 1014.2 -2.1 24
2018-03-28 14:00:00 25.1 10 Sudeste 21 Este 0 1015 -1.7 30
2018-03-28 13:00:00 26.4 11 Oeste 22 Oeste 0 1015.6 -1.3 22
2018-03-28 12:00:00 25 11 Noroeste 25 Noroeste 0 1016.3 -0.8 26
2018-03-28 11:00:00 22.8 4 Sudeste 9 Este 0 1016.7 -0.1 32
2018-03-28 10:00:00 18.6 4 Sur 6 Sudoeste 0 1016.9 0.2 44
2018-03-28 09:00:00 12.9 3 Oeste 10 Sudoeste 0 1017.1 0.1 61
2018-03-28 08:00:00 12.1 3 Sur 15 Oeste 0 1016.8 -0.3 58
2018-03-28 07:00:00 12.5 11 Sudoeste 15 Oeste 0 1016.7 -1.1 57
2018-03-28 06:00:00 13.7 2 Noroeste 13 Sudoeste 0 1017 -1.4 52
2018-03-28 05:00:00 11.6 4 Oeste 9 Oeste 0 1017.1 -1.7 61
2018-03-28 04:00:00 10.5 4 Sur 13 Noroeste 0 1017.8 -1.3 67
2018-03-28 03:00:00 10.7 4 Oeste 12 Oeste 0 1018.4 -1 65
2018-03-28 02:00:00 10.5 4 Sudoeste 11 Oeste 0 1018.8 -1 64
2018-03-28 01:00:00 13.3 7 Oeste 16 Oeste 0 1019.1 -0.7 55
2018-03-28 00:00:00 14.2 7 Oeste 20 Sudoeste 0 1019.4 -0.3 58
2018-03-27 23:00:00 15.3 13 Sudoeste 32 Sudoeste 0 1019.8 0.1 56
2018-03-27 22:00:00 17.1 15 Sudoeste 34 Oeste 0 1019.8 0 37
2018-03-27 21:00:00 16.6 16 Oeste 36 Sudoeste 0 1019.7 -0.5 40
2018-03-27 20:00:00 16.8 19 Sudoeste 42 Sudoeste 0 1019.7 -0.6 45
2018-03-27 19:00:00 18 20 Sudoeste 44 Sudoeste 0 1019.8 -0.9 45
2018-03-27 18:00:00 19.8 18 Sudoeste 33 Sur 0 1020.2 -1 41
2018-03-27 17:00:00 21.4 15 Sur 32 Sur 0 1020.3 -1.5 28
2018-03-27 16:00:00 21.3 17 Sur 34 Sur 0 1020.7 -1.5 28
2018-03-27 15:00:00 20.5 18 Sur 35 Sur 0 1021.2 -1.3 31
2018-03-27 14:00:00 21.3 12 Sur 27 Sudeste 0 1021.8 -0.4 31
2018-03-27 13:00:00 21.3 14 Noroeste 27 Norte 0 1022.2 0.2 31
2018-03-27 12:00:00 20.4 12 Noroeste 32 Norte 0 1022.5 0.9 31
2018-03-27 11:00:00 18.3 16 Noroeste 31 Noroeste 0 1022.2 1.1 33
2018-03-27 10:00:00 14.6 3 Sudoeste 15 Sudoeste 0 1022 1.3 47
2018-03-27 09:00:00 9.4 6 Oeste 11 Sudoeste 0 1021.6 1.2 58
2018-03-27 08:00:00 7.2 4 Oeste 11 Oeste 0 1021.1 0.5 62
2018-03-27 07:00:00 6 7 Oeste 14 Oeste 0 1020.7 -0.2 69
2018-03-27 06:00:00 5.8 7 Oeste 12 Sudoeste 0 1020.4 -0.5 70
2018-03-27 05:00:00 6.6 9 Oeste 12 Oeste 0 1020.6 -0.5 69
2018-03-27 04:00:00 7.2 6 Oeste 14 Oeste 0 1020.9 0.2 69
2018-03-27 03:00:00 6.4 4 Oeste 10 Sudoeste 0 1020.9 0.4 73
2018-03-27 02:00:00 6.7 6 Oeste 12 Oeste 0 1021.1 1 75
2018-03-27 01:00:00 7.7 9 Sudoeste 13 Oeste 0 1020.7 1.1 69
2018-03-27 00:00:00 8.4 8 Sudoeste 13 Oeste 0 1020.5 1.7 68
2018-03-26 23:00:00 10.9 7 Oeste 12 Oeste 0 1020.1 1.7 59
2018-03-26 22:00:00 12 5 Oeste 16 Sudoeste 0 1019.6 1.8 56
2018-03-26 21:00:00 12.9 10 Sudoeste 19 Sudoeste 0 1018.8 1.2 56
2018-03-26 20:00:00 14.1 8 Sudoeste 24 Sudoeste 0 1018.4 1.1 53
2018-03-26 19:00:00 15.8 10 Sudoeste 25 Sur 0 1017.8 0.5 44
2018-03-26 18:00:00 16.8 13 Sudoeste 30 Sudoeste 0 1017.6 -0.3 40
2018-03-26 17:00:00 19.6 14 Sudoeste 28 Sur 0 1017.3 -0.8 30
2018-03-26 16:00:00 19.4 13 Sur 22 Sur 0 1017.3 -0.8 33
2018-03-26 15:00:00 20.5 13 Noroeste 24 Norte 0 1017.9 0.1 28
2018-03-26 14:00:00 19.5 14 Norte 27 Norte 0 1018.1 0.8 31
2018-03-26 13:00:00 18.3 17 Noroeste 37 Norte 0 1018.1 1.4 32
2018-03-26 12:00:00 17 19 Noroeste 34 Noroeste 0 1017.8 1.7 34
2018-03-26 11:00:00 15.7 18 Noroeste 34 Noroeste 0 1017.3 1.9 35
2018-03-26 10:00:00 14.1 13 Oeste 23 Noroeste 0 1016.7 2 40
2018-03-26 09:00:00 11.4 12 Oeste 24 Oeste 0 1016.1 1.9 48
2018-03-26 08:00:00 6.2 9 Oeste 21 Oeste 0 1015.4 1.3 70
2018-03-26 07:00:00 6.3 9 Sudoeste 13 Oeste 0 1014.7 0.8 71
2018-03-26 06:00:00 10.6 8 Noroeste 23 Oeste 0 1014.2 0.7 52
2018-03-26 05:00:00 10.9 10 Oeste 28 Noroeste 0 1014.1 0.8 56
2018-03-26 04:00:00 10.9 10 Oeste 19 Oeste 0 1013.9 0.9 59
2018-03-26 03:00:00 10.4 6 Oeste 24 Noroeste 0 1013.5 1.1 65
2018-03-26 02:00:00 11.4 13 Noroeste 24 Noroeste 0 1013.3 1.4 62
2018-03-26 01:00:00 10.8 10 Noroeste 17 Oeste 0 1013 1.7 72
2018-03-26 00:00:00 9.5 8 Oeste 11 Oeste 0 1012.4 2.1 79
2018-03-25 23:00:00 9.3 5 Sudoeste 9 Sudoeste 0 1011.9 2.4 79
2018-03-25 22:00:00 9.8 4 Oeste 5 Oeste 0 1011.3 2.5 76
2018-03-25 21:00:00 11.1 2 Sudeste 8 Sur 0 1010.3 2.4 67
2018-03-25 20:00:00 13.2 5 Sur 10 Este 0 1009.5 2 60
2018-03-25 19:00:00 14.1 6 Sudeste 17 Este 0 1008.8 1.7 56
2018-03-25 18:00:00 14.4 8 Este 15 Sudeste 0 1007.9 0.9 57
2018-03-25 17:00:00 14.6 9 Este 17 Este 0 1007.5 0.3 51
2018-03-25 16:00:00 15.3 8 Este 32 Nordeste 0 1007.1 -0.2 38
2018-03-25 15:00:00 16.6 12 Nordeste 26 Nordeste 0 1007 -0.1 36
2018-03-25 14:00:00 17.4 16 Nordeste 29 Nordeste 0 1007.2 0.7 32
2018-03-25 13:00:00 17.5 15 Noroeste 30 Noroeste 0 1007.3 1.5 30
2018-03-25 12:00:00 15 16 Noroeste 31 Oeste 0 1007.1 2.1 38
2018-03-25 11:00:00 14.4 18 Oeste 42 Noroeste 0 1006.5 2.3 34
2018-03-25 10:00:00 13.4 18 Noroeste 36 Noroeste 0 1005.8 1.5 37
2018-03-25 09:00:00 12.9 19 Noroeste 40 Noroeste 0 1005 1.5 37
2018-03-25 08:00:00 12.7 26 Noroeste 43 Noroeste 0 1004.2 1.3 36
2018-03-25 07:00:00 12.9 17 Oeste 38 Noroeste 0 1004.3 2.1 37
2018-03-25 06:00:00 13 18 Oeste 42 Noroeste 0 1003.5 2.2 37
2018-03-25 05:00:00 13.1 21 Oeste 47 Oeste 0 1002.9 1.6 36
2018-03-25 03:00:00 13.7 29 Oeste 59 Oeste 0 1001.3 0.1 36
2018-03-25 01:00:00 14.1 30 Oeste 57 Oeste 0 1001.3 0.8 35
2018-03-25 00:00:00 14.1 30 Oeste 60 Oeste 0 1001.1 1.3 37